Time,TemperatureF,DewpointF,PressureIn,WindDirection,WindDirectionDegrees,WindSpeedMPH,WindSpeedGustMPH,Humidity,HourlyPrecipIn,Conditions,Clouds,dailyrainin,SoftwareType,DateUTC
2013-01-07 00:12:00,10.4,6.5,30.06,ESE,112,2.7,-999.0,84,-99.99,,,0.00,Acu-Link.com,2013-01-07 05:12:00,
2013-01-07 00:27:00,9.5,4.9,30.08,North,0,0.0,-999.0,81,-99.99,,,0.00,Acu-Link.com,2013-01-07 05:27:00,
2013-01-07 00:42:00,9.0,4.6,30.09,ESE,112,0.0,-999.0,82,-99.99,,,0.00,Acu-Link.com,2013-01-07 05:42:00,
2013-01-07 00:57:00,8.4,4.3,30.10,South,180,0.0,-999.0,83,-99.99,,,0.00,Acu-Link.com,2013-01-07 05:57:00,
2013-01-07 01:12:00,8.2,4.2,30.11,North,0,0.0,-999.0,83,-99.99,,,0.00,Acu-Link.com,2013-01-07 06:12:00,
2013-01-07 01:28:00,7.9,3.8,30.12,South,180,0.0,-999.0,83,-99.99,,,0.00,Acu-Link.com,2013-01-07 06:28:00,
2013-01-07 01:43:00,7.5,3.5,30.13,ESE,112,0.0,-999.0,83,-99.99,,,0.00,Acu-Link.com,2013-01-07 06:43:00,
2013-01-07 01:58:00,7.0,2.7,30.13,North,0,0.0,-999.0,82,-99.99,,,0.00,Acu-Link.com,2013-01-07 06:58:00,
2013-01-07 02:13:00,6.1,1.5,30.14,North,0,0.0,-999.0,81,-99.99,,,0.00,Acu-Link.com,2013-01-07 07:13:00,
2013-01-07 02:28:00,5.5,1.3,30.15,North,0,0.0,-999.0,82,-99.99,,,0.00,Acu-Link.com,2013-01-07 07:28:00,
2013-01-07 02:44:00,5.2,0.1,30.16,NE,45,0.0,-999.0,79,-99.99,,,0.00,Acu-Link.com,2013-01-07 07:44:00,
2013-01-07 02:59:00,4.8,-0.5,30.17,North,0,0.0,-999.0,78,-99.99,,,0.00,Acu-Link.com,2013-01-07 07:59:00,
2013-01-07 03:14:00,3.7,-1.3,30.18,North,0,0.0,-999.0,79,-99.99,,,0.00,Acu-Link.com,2013-01-07 08:14:00,
2013-01-07 03:29:00,2.8,-1.9,30.19,North,0,0.0,-999.0,80,-99.99,,,0.00,Acu-Link.com,2013-01-07 08:29:00,
2013-01-07 03:44:00,3.0,-2.0,30.20,North,0,0.0,-999.0,79,-99.99,,,0.00,Acu-Link.com,2013-01-07 08:44:00,
2013-01-07 04:00:00,2.8,-2.7,30.20,North,0,0.0,-999.0,77,-99.99,,,0.00,Acu-Link.com,2013-01-07 09:00:00,
2013-01-07 04:15:00,2.3,-3.8,30.21,North,0,0.0,-999.0,75,-99.99,,,0.00,Acu-Link.com,2013-01-07 09:15:00,
2013-01-07 04:30:00,1.6,-3.9,30.21,North,0,0.0,-999.0,77,-99.99,,,0.00,Acu-Link.com,2013-01-07 09:30:00,
2013-01-07 04:45:00,0.3,-4.9,30.21,North,0,0.0,-999.0,78,-99.99,,,0.00,Acu-Link.com,2013-01-07 09:45:00,
2013-01-07 05:00:00,-1.3,-6.5,30.22,North,0,0.0,-999.0,78,-99.99,,,0.00,Acu-Link.com,2013-01-07 10:00:00,
2013-01-07 05:15:00,-1.5,-6.6,30.23,North,0,0.0,-999.0,78,-99.99,,,0.00,Acu-Link.com,2013-01-07 10:15:00,
2013-01-07 05:31:00,-1.5,-7.2,30.24,North,0,0.0,-999.0,76,-99.99,,,0.00,Acu-Link.com,2013-01-07 10:31:00,
2013-01-07 05:46:00,-1.8,-7.0,30.24,North,0,0.0,-999.0,78,-99.99,,,0.00,Acu-Link.com,2013-01-07 10:46:00,
2013-01-07 06:01:00,-1.8,-7.3,30.26,North,0,0.0,-999.0,77,-99.99,,,0.00,Acu-Link.com,2013-01-07 11:01:00,
2013-01-07 06:16:00,-2.9,-8.3,30.27,North,0,0.0,-999.0,77,-99.99,,,0.00,Acu-Link.com,2013-01-07 11:16:00,
2013-01-07 06:31:00,-4.4,-9.4,30.28,North,0,0.0,-999.0,78,-99.99,,,0.00,Acu-Link.com,2013-01-07 11:31:00,
2013-01-07 06:47:00,-6.3,-12.2,30.28,North,0,0.0,-999.0,75,-99.99,,,0.00,Acu-Link.com,2013-01-07 11:47:00,
2013-01-07 07:02:00,-6.5,-11.8,30.31,North,0,1.1,-999.0,77,-99.99,,,0.00,Acu-Link.com,2013-01-07 12:02:00,
2013-01-07 07:17:00,-7.1,-12.1,30.31,North,0,0.0,-999.0,78,-99.99,,,0.00,Acu-Link.com,2013-01-07 12:17:00,
2013-01-07 07:32:00,-7.2,-12.5,30.31,North,0,0.0,-999.0,77,-99.99,,,0.00,Acu-Link.com,2013-01-07 12:32:00,
2013-01-07 07:47:00,-8.0,-13.2,30.31,North,0,0.0,-999.0,77,-99.99,,,0.00,Acu-Link.com,2013-01-07 12:47:00,
2013-01-07 08:03:00,-8.0,-13.0,30.32,North,0,0.0,-999.0,78,-99.99,,,0.00,Acu-Link.com,2013-01-07 13:03:00,
2013-01-07 08:18:00,-8.0,-13.2,30.32,North,0,0.0,-999.0,77,-99.99,,,0.00,Acu-Link.com,2013-01-07 13:18:00,
2013-01-07 08:33:00,-8.3,-14.3,30.33,North,0,0.0,-999.0,74,-99.99,,,0.00,Acu-Link.com,2013-01-07 13:33:00,
2013-01-07 08:48:00,-6.5,-12.1,30.34,North,0,0.0,-999.0,76,-99.99,,,0.00,Acu-Link.com,2013-01-07 13:48:00,
2013-01-07 09:03:00,-4.7,-10.9,30.34,North,0,0.0,-999.0,74,-99.99,,,0.00,Acu-Link.com,2013-01-07 14:03:00,
2013-01-07 09:19:00,-1.7,-7.9,30.35,North,0,0.0,-999.0,74,-99.99,,,0.00,Acu-Link.com,2013-01-07 14:19:00,
2013-01-07 09:34:00,2.1,-5.7,30.35,North,0,0.0,-999.0,69,-99.99,,,0.00,Acu-Link.com,2013-01-07 14:34:00,
2013-01-07 09:49:00,5.9,-3.3,30.36,North,0,0.0,-999.0,65,-99.99,,,0.00,Acu-Link.com,2013-01-07 14:49:00,
2013-01-07 10:04:00,7.0,-2.9,30.37,North,0,0.0,-999.0,63,-99.99,,,0.00,Acu-Link.com,2013-01-07 15:04:00,
2013-01-07 10:19:00,8.6,-2.4,30.37,SW,225,0.0,-999.0,60,-99.99,,,0.00,Acu-Link.com,2013-01-07 15:19:00,
2013-01-07 10:35:00,12.7,2.6,30.38,SW,225,0.0,-999.0,63,-99.99,,,0.00,Acu-Link.com,2013-01-07 15:35:00,
2013-01-07 10:50:00,15.3,4.3,30.38,SW,225,0.0,-999.0,61,-99.99,,,0.00,Acu-Link.com,2013-01-07 15:50:00,
2013-01-07 11:05:00,15.4,5.8,30.38,SW,225,0.0,-999.0,65,-99.99,,,0.00,Acu-Link.com,2013-01-07 16:05:00,
2013-01-07 11:20:00,13.6,4.1,30.38,SW,225,1.1,-999.0,65,-99.99,,,0.00,Acu-Link.com,2013-01-07 16:20:00,
2013-01-07 11:35:00,13.8,3.2,30.37,SW,225,2.2,-999.0,62,-99.99,,,0.00,Acu-Link.com,2013-01-07 16:35:00,
2013-01-07 11:51:00,12.9,2.7,30.35,SW,225,2.7,-999.0,63,-99.99,,,0.00,Acu-Link.com,2013-01-07 16:51:00,
2013-01-07 12:06:00,12.9,3.7,30.35,SW,225,0.0,-999.0,66,-99.99,,,0.00,Acu-Link.com,2013-01-07 17:06:00,
2013-01-07 12:21:00,13.5,3.9,30.34,SW,225,2.7,-999.0,65,-99.99,,,0.00,Acu-Link.com,2013-01-07 17:21:00,
2013-01-07 12:36:00,13.5,4.6,30.33,SW,225,0.0,-999.0,67,-99.99,,,0.00,Acu-Link.com,2013-01-07 17:36:00,
2013-01-07 12:51:00,16.2,6.8,30.31,SW,225,3.8,-999.0,66,-99.99,,,0.00,Acu-Link.com,2013-01-07 17:51:00,
2013-01-07 13:07:00,16.7,5.6,30.33,WSW,247,3.8,-999.0,61,-99.99,,,0.00,Acu-Link.com,2013-01-07 18:07:00,
2013-01-07 13:22:00,18.1,9.4,30.32,SW,225,0.0,-999.0,68,-99.99,,,0.00,Acu-Link.com,2013-01-07 18:22:00,
2013-01-07 13:37:00,16.9,7.2,30.33,SW,225,1.1,-999.0,65,-99.99,,,0.00,Acu-Link.com,2013-01-07 18:37:00,
2013-01-07 13:52:00,16.2,7.5,30.32,SW,225,0.0,-999.0,68,-99.99,,,0.00,Acu-Link.com,2013-01-07 18:52:00,
2013-01-07 14:07:00,14.9,6.3,30.31,SW,225,1.1,-999.0,68,-99.99,,,0.00,Acu-Link.com,2013-01-07 19:07:00,
2013-01-07 14:23:00,14.0,6.4,30.31,SW,225,0.0,-999.0,71,-99.99,,,0.00,Acu-Link.com,2013-01-07 19:23:00,
2013-01-07 14:38:00,13.8,7.4,30.31,SW,225,3.1,-999.0,75,-99.99,,,0.00,Acu-Link.com,2013-01-07 19:38:00,
2013-01-07 14:53:00,12.7,6.3,30.31,WSW,247,0.0,-999.0,75,-99.99,,,0.00,Acu-Link.com,2013-01-07 19:53:00,
2013-01-07 15:08:00,12.0,5.9,30.32,WSW,247,0.0,-999.0,76,-99.99,,,0.00,Acu-Link.com,2013-01-07 20:08:00,
2013-01-07 15:23:00,11.3,5.2,30.32,WSW,247,0.0,-999.0,76,-99.99,,,0.00,Acu-Link.com,2013-01-07 20:23:00,
2013-01-07 15:39:00,10.4,4.6,30.32,WSW,247,2.2,-999.0,77,-99.99,,,0.00,Acu-Link.com,2013-01-07 20:39:00,
2013-01-07 15:54:00,9.7,4.2,30.32,WSW,247,1.1,-999.0,78,-99.99,,,0.00,Acu-Link.com,2013-01-07 20:54:00,
2013-01-07 16:09:00,9.0,3.8,30.32,WSW,247,0.0,-999.0,79,-99.99,,,0.00,Acu-Link.com,2013-01-07 21:09:00,
2013-01-07 16:24:00,7.9,3.0,30.32,WSW,247,0.0,-999.0,80,-99.99,,,0.00,Acu-Link.com,2013-01-07 21:24:00,
2013-01-07 16:39:00,7.0,2.4,30.32,WSW,247,0.0,-999.0,81,-99.99,,,0.00,Acu-Link.com,2013-01-07 21:39:00,
2013-01-07 16:55:00,5.9,1.3,30.31,WSW,247,0.0,-999.0,81,-99.99,,,0.00,Acu-Link.com,2013-01-07 21:55:00,
2013-01-07 17:10:00,5.2,0.9,30.31,WSW,247,0.0,-999.0,82,-99.99,,,0.00,Acu-Link.com,2013-01-07 22:10:00,
2013-01-07 17:25:00,4.8,0.8,30.30,WSW,247,0.0,-999.0,83,-99.99,,,0.00,Acu-Link.com,2013-01-07 22:25:00,
2013-01-07 17:40:00,4.6,0.9,30.29,WSW,247,1.6,-999.0,84,-99.99,,,0.00,Acu-Link.com,2013-01-07 22:40:00,
2013-01-07 17:55:00,4.8,1.1,30.29,WSW,247,0.0,-999.0,84,-99.99,,,0.00,Acu-Link.com,2013-01-07 22:55:00,
2013-01-07 18:11:00,5.2,1.7,30.28,WSW,247,0.0,-999.0,85,-99.99,,,0.00,Acu-Link.com,2013-01-07 23:11:00,
2013-01-07 18:26:00,5.4,1.9,30.27,WSW,247,0.0,-999.0,85,-99.99,,,0.00,Acu-Link.com,2013-01-07 23:26:00,
2013-01-07 18:41:00,5.5,2.8,30.25,WSW,247,0.0,-999.0,88,-99.99,,,0.00,Acu-Link.com,2013-01-07 23:41:00,
2013-01-07 18:56:00,6.1,3.3,30.24,WSW,247,0.0,-999.0,88,-99.99,,,0.00,Acu-Link.com,2013-01-07 23:56:00,
2013-01-07 19:11:00,6.3,3.5,30.25,WSW,247,0.0,-999.0,88,-99.99,,,0.00,Acu-Link.com,2013-01-08 00:11:00,
2013-01-07 19:27:00,6.4,3.7,30.24,WSW,247,0.0,-999.0,88,-99.99,,,0.00,Acu-Link.com,2013-01-08 00:27:00,
2013-01-07 19:42:00,6.6,3.6,30.23,WSW,247,0.0,-999.0,87,-99.99,,,0.00,Acu-Link.com,2013-01-08 00:42:00,
2013-01-07 19:57:00,6.6,3.8,30.22,WSW,247,0.0,-999.0,88,-99.99,,,0.00,Acu-Link.com,2013-01-08 00:57:00,
2013-01-07 20:12:00,6.6,3.6,30.21,WSW,247,0.0,-999.0,87,-99.99,,,0.00,Acu-Link.com,2013-01-08 01:12:00,
2013-01-07 20:27:00,6.8,3.5,30.20,WSW,247,0.0,-999.0,86,-99.99,,,0.00,Acu-Link.com,2013-01-08 01:27:00,
2013-01-07 20:43:00,6.8,3.8,30.19,WSW,247,0.0,-999.0,87,-99.99,,,0.00,Acu-Link.com,2013-01-08 01:43:00,
2013-01-07 20:58:00,6.8,4.0,30.19,WSW,247,0.0,-999.0,88,-99.99,,,0.00,Acu-Link.com,2013-01-08 01:58:00,
2013-01-07 21:13:00,7.0,4.7,30.17,WSW,247,1.1,-999.0,90,-99.99,,,0.00,Acu-Link.com,2013-01-08 02:13:00,
2013-01-07 21:28:00,7.2,4.9,30.17,WSW,247,0.0,-999.0,90,-99.99,,,0.00,Acu-Link.com,2013-01-08 02:28:00,
2013-01-07 21:43:00,7.7,7.3,30.16,WSW,247,0.0,-999.0,98,-99.99,,,0.00,Acu-Link.com,2013-01-08 02:43:00,
2013-01-07 21:59:00,8.4,8.0,30.15,WSW,247,0.0,-999.0,98,-99.99,,,0.00,Acu-Link.com,2013-01-08 02:59:00,
2013-01-07 22:14:00,9.5,9.1,30.15,WSW,247,0.0,-999.0,98,-99.99,,,0.00,Acu-Link.com,2013-01-08 03:14:00,
2013-01-07 22:29:00,10.6,10.1,30.14,WSW,247,0.0,-999.0,98,-99.99,,,0.00,Acu-Link.com,2013-01-08 03:29:00,
2013-01-07 22:44:00,11.3,10.8,30.14,WSW,247,0.0,-999.0,98,-99.99,,,0.00,Acu-Link.com,2013-01-08 03:44:00,
2013-01-07 22:59:00,12.0,11.6,30.13,WSW,247,0.0,-999.0,98,-99.99,,,0.00,Acu-Link.com,2013-01-08 03:59:00,
2013-01-07 23:15:00,12.4,11.9,30.11,WSW,247,2.7,-999.0,98,-99.99,,,0.00,Acu-Link.com,2013-01-08 04:15:00,
2013-01-07 23:30:00,13.1,12.6,30.11,WSW,247,0.0,-999.0,98,-99.99,,,0.00,Acu-Link.com,2013-01-08 04:30:00,
2013-01-07 23:45:00,13.5,13.0,30.10,WSW,247,1.6,-999.0,98,-99.99,,,0.00,Acu-Link.com,2013-01-08 04:45:00,